Allise P — A8JE7 — position and weather

sailwx.info

Track history (hours):
 
Tides and Currents Weather Stations Pressure Air Temp Water Temp Dewpoint Dewpoint Depression Visibility Wind Speed Wind Dir Waves Ship Positions

Allise P

Last reported at 2017-Oct-22 22:46 UTC. Time now 2017-Oct-22 23:06 UTC.
Position S 38°17' E 149°03'.

Length 294 m; draft 11.9 m.

Type: Cargo ship. MMSI: 636091079.

Date/timePositionNaut miles runAvg speedWind from/ knotsBaromVisibWave heightAir tempDewpointWater temp
2017-Oct-22 22:46S 38°17' E 149°03'415.8
2017-Oct-22 22:30S 38°19' E 148°59'2116.6
2017-Oct-22 21:13S 38°33' E 148°38'4417.6
2017-Oct-22 18:44S 38°54' E 147°49'14212.2
2017-Oct-22 07:05S 38°12' E 144°55'220.0
2017-Oct-22 07:00S 38°11' E 144°55'1019.9
2017-Oct-22 06:29S 38°00' E 144°55'715.0
2017-Oct-22 06:00S 37°53' E 144°56'4 7.5
2017-Oct-22 05:28S 37°49' E 144°55'0 0.6
2017-Oct-22 04:40S 37°49' E 144°55'0 0.0
2017-Oct-22 04:25S 37°49' E 144°55'0 0.0
2017-Oct-21 21:49S 37°49' E 144°55'0 0.0
2017-Oct-21 21:07S 37°49' E 144°55'0 0.0
2017-Oct-21 20:52S 37°49' E 144°55'0 0.0
2017-Oct-21 20:22S 37°49' E 144°55'0 0.0
2017-Oct-21 19:58S 37°49' E 144°55'0 0.0
2017-Oct-21 19:28S 37°49' E 144°55'0 0.0
2017-Oct-21 18:55S 37°49' E 144°55'0 0.1
2017-Oct-21 18:28S 37°49' E 144°55'0 0.1
2017-Oct-21 17:52S 37°49' E 144°55'0 0.0
2017-Oct-21 17:25S 37°49' E 144°55'0 0.1
2017-Oct-21 16:34S 37°49' E 144°55'0 0.1
2017-Oct-21 16:22S 37°49' E 144°55'0 0.0
2017-Oct-21 06:31S 37°49' E 144°55'0 0.0
2017-Oct-20 23:16S 37°49' E 144°55'0 0.0
2017-Oct-20 20:09S 37°49' E 144°55'0 1.8
2017-Oct-20 20:00S 37°49' E 144°55'2 3.4
2017-Oct-20 19:24S 37°51' E 144°55'4 9.2
2017-Oct-20 19:00S 37°55' E 144°56'612.0
2017-Oct-20 18:29S 38°01' E 144°55'18510.3
2017-Oct-20 00:35S 38°22' E 148°49'218.1
2017-Oct-20 00:29S 38°21' E 148°51'917.8
2017-Oct-20 00:00S 38°15' E 148°60'1017.5
2017-Oct-19 23:26S 38°09' E 149°10'  
2017-Oct-17 16:13S 33°56' E 151°32'616.2
2017-Oct-17 15:52S 33°51' E 151°35'816.3
2017-Oct-17 15:23S 33°44' E 151°40'3316.0
2017-Oct-17 13:20S 33°16' E 152°01'516.5
2017-Oct-17 13:00S 33°12' E 152°04'816.6
2017-Oct-17 12:30S 33°04' E 152°09'816.7
2017-Oct-17 12:00S 32°57' E 152°15'816.9
2017-Oct-17 11:30S 32°50' E 152°20'817.0
2017-Oct-17 11:00S 32°43' E 152°26'816.7
2017-Oct-17 10:30S 32°37' E 152°32'25215.6
2017-Oct-16 18:21S 28°34' E 153°50'917.7
2017-Oct-16 17:50S 28°24' E 153°50'917.7
2017-Oct-16 17:20S 28°15' E 153°51'617.5
2017-Oct-16 17:00S 28°10' E 153°51'917.3
2017-Oct-16 16:30S 28°01' E 153°51'816.9
2017-Oct-16 16:00S 27°53' E 153°52'817.0
2017-Oct-16 15:30S 27°44' E 153°52'917.1
2017-Oct-16 15:00S 27°36' E 153°52'  
Track history (hours):
 
Tides and Currents Weather Stations Pressure Air Temp Water Temp Dewpoint Dewpoint Depression Visibility Wind Speed Wind Dir Waves Ship Positions

Allise P

Last reported at 2017-Oct-22 22:46 UTC. Time now 2017-Oct-22 23:06 UTC.
Position S 38°17' E 149°03'.

Length 294 m; draft 11.9 m.

Type: Cargo ship. MMSI: 636091079.

Date/timePositionNaut miles runAvg speedWind from/ knotsBaromVisibWave heightAir tempDewpointWater temp
2017-Oct-22 22:46S 38°17' E 149°03'415.8
2017-Oct-22 22:30S 38°19' E 148°59'2116.6
2017-Oct-22 21:13S 38°33' E 148°38'4417.6
2017-Oct-22 18:44S 38°54' E 147°49'14212.2
2017-Oct-22 07:05S 38°12' E 144°55'220.0
2017-Oct-22 07:00S 38°11' E 144°55'1019.9
2017-Oct-22 06:29S 38°00' E 144°55'715.0
2017-Oct-22 06:00S 37°53' E 144°56'4 7.5
2017-Oct-22 05:28S 37°49' E 144°55'0 0.6
2017-Oct-22 04:40S 37°49' E 144°55'0 0.0
2017-Oct-22 04:25S 37°49' E 144°55'0 0.0
2017-Oct-21 21:49S 37°49' E 144°55'0 0.0
2017-Oct-21 21:07S 37°49' E 144°55'0 0.0
2017-Oct-21 20:52S 37°49' E 144°55'0 0.0
2017-Oct-21 20:22S 37°49' E 144°55'0 0.0
2017-Oct-21 19:58S 37°49' E 144°55'0 0.0
2017-Oct-21 19:28S 37°49' E 144°55'0 0.0
2017-Oct-21 18:55S 37°49' E 144°55'0 0.1
2017-Oct-21 18:28S 37°49' E 144°55'0 0.1
2017-Oct-21 17:52S 37°49' E 144°55'0 0.0
2017-Oct-21 17:25S 37°49' E 144°55'0 0.1
2017-Oct-21 16:34S 37°49' E 144°55'0 0.1
2017-Oct-21 16:22S 37°49' E 144°55'0 0.0
2017-Oct-21 06:31S 37°49' E 144°55'0 0.0
2017-Oct-20 23:16S 37°49' E 144°55'0 0.0
2017-Oct-20 20:09S 37°49' E 144°55'0 1.8
2017-Oct-20 20:00S 37°49' E 144°55'2 3.4
2017-Oct-20 19:24S 37°51' E 144°55'4 9.2
2017-Oct-20 19:00S 37°55' E 144°56'612.0
2017-Oct-20 18:29S 38°01' E 144°55'18510.3
2017-Oct-20 00:35S 38°22' E 148°49'218.1
2017-Oct-20 00:29S 38°21' E 148°51'917.8
2017-Oct-20 00:00S 38°15' E 148°60'1017.5
2017-Oct-19 23:26S 38°09' E 149°10'  
2017-Oct-17 16:13S 33°56' E 151°32'616.2
2017-Oct-17 15:52S 33°51' E 151°35'816.3
2017-Oct-17 15:23S 33°44' E 151°40'3316.0
2017-Oct-17 13:20S 33°16' E 152°01'516.5
2017-Oct-17 13:00S 33°12' E 152°04'816.6
2017-Oct-17 12:30S 33°04' E 152°09'816.7
2017-Oct-17 12:00S 32°57' E 152°15'816.9
2017-Oct-17 11:30S 32°50' E 152°20'817.0
2017-Oct-17 11:00S 32°43' E 152°26'816.7
2017-Oct-17 10:30S 32°37' E 152°32'25215.6
2017-Oct-16 18:21S 28°34' E 153°50'917.7
2017-Oct-16 17:50S 28°24' E 153°50'917.7
2017-Oct-16 17:20S 28°15' E 153°51'617.5
2017-Oct-16 17:00S 28°10' E 153°51'917.3
2017-Oct-16 16:30S 28°01' E 153°51'816.9
2017-Oct-16 16:00S 27°53' E 153°52'817.0
2017-Oct-16 15:30S 27°44' E 153°52'917.1
2017-Oct-16 15:00S 27°36' E 153°52'  

Dump ship's entire track history